Forside
METAR-TAF:

METAR-TAF

Lufthavne :

Grand Rapids, Michigan, USA

Breddekreds: 42-52-51N, længdekreds: 085-31-22W, højde: 242 m

Aktuelle vejr

Denne rapport blev lavet for 19 minutter siden, kl. 16:53 UTC
Vind 12 kt fra sydsydvest
Temperatur 6°C
Fugtighed 52%
Tryk 1014 hPa
Sigt: 16.1 km
skyfri

METAR: KGRR 231653Z 20012KT 10SM CLR 06/M03 A2993 RMK AO2 SLP140 T00561033 $

Tid: 12:12 (17:12 UTC)

Vejrudsigter

Denne rapport blev lavet for 5 timer og 23 minutter siden, kl. 11:49 UTC
Foreløbig gælder fra 23 på 12 UTC til 24 på 12 UTC
Vind 9 kt fra sydsydvest
Sigt: 10 km
skyfri
Fra 24 på 0000 UTC
Vind 8 kt fra sydvest
Sigt: 10 km
Brudte skyer i en højde af 3000 ft
Fra 24 på 0600 UTC
Vind 5 kt fra vestnordvest
Sigt: 10 km
Overskyet i en højde af 2500 ft
Fra 24 på 1100 UTC
Vind 4 kt fra varierende retninger
Sigt: 8.0 km
Brudte skyer i en højde af 1000 ft
dis

TAF: KGRR 231149Z 2312/2412 20009KT P6SM SKC FM240000 23008KT P6SM BKN030 FM240600 29005KT P6SM OVC025 FM241100 VRB04KT 5SM BR BKN010

Vejrobservationer og prognoser fra mere end 4000 lufthavne (METAR og TAF).

De gule og røde prikker repræsenterer de meteorologiske stationer.

Flyt musen over at se navnet på stationen.

Så klik over at se vejr observationer og prognoser.

At skifte det kort: Klik på de grønne knapper med et sort kors for at zoome ind; på den grønne knap med en bindestreg for at zoome ud; eller på de grønne pile for tilstødende kort.


METAR-TAF: